sensor_id;sensor_type;location;lat;lon;timestamp;P1;durP1;ratioP1;P2;durP2;ratioP2
26391;SDS011;14572;43.120;1.178;2023-08-20T00:00:55;8.85;;;7.50;;
26391;SDS011;14572;43.120;1.178;2023-08-20T00:03:23;14.02;;;7.88;;
26391;SDS011;14572;43.120;1.178;2023-08-20T00:05:51;11.60;;;8.02;;
26391;SDS011;14572;43.120;1.178;2023-08-20T00:08:18;9.60;;;7.22;;
26391;SDS011;14572;43.120;1.178;2023-08-20T00:10:45;13.10;;;7.75;;
26391;SDS011;14572;43.120;1.178;2023-08-20T00:13:12;12.07;;;7.82;;
26391;SDS011;14572;43.120;1.178;2023-08-20T00:15:40;10.70;;;7.53;;
26391;SDS011;14572;43.120;1.178;2023-08-20T00:18:10;10.45;;;7.85;;
26391;SDS011;14572;43.120;1.178;2023-08-20T00:20:37;11.65;;;7.88;;
26391;SDS011;14572;43.120;1.178;2023-08-20T00:23:05;12.45;;;7.43;;
26391;SDS011;14572;43.120;1.178;2023-08-20T00:25:33;8.43;;;7.10;;
26391;SDS011;14572;43.120;1.178;2023-08-20T00:28:01;9.65;;;7.63;;
26391;SDS011;14572;43.120;1.178;2023-08-20T00:30:28;9.05;;;7.13;;
26391;SDS011;14572;43.120;1.178;2023-08-20T00:32:55;9.52;;;7.32;;
26391;SDS011;14572;43.120;1.178;2023-08-20T00:35:24;10.30;;;8.35;;
26391;SDS011;14572;43.120;1.178;2023-08-20T00:37:51;10.00;;;7.07;;
26391;SDS011;14572;43.120;1.178;2023-08-20T00:40:18;13.32;;;8.13;;
26391;SDS011;14572;43.120;1.178;2023-08-20T00:42:45;9.95;;;7.70;;
26391;SDS011;14572;43.120;1.178;2023-08-20T00:45:12;10.75;;;7.43;;
26391;SDS011;14572;43.120;1.178;2023-08-20T00:47:39;8.75;;;7.32;;
26391;SDS011;14572;43.120;1.178;2023-08-20T00:50:07;13.32;;;7.45;;
26391;SDS011;14572;43.120;1.178;2023-08-20T00:52:36;9.73;;;7.22;;
26391;SDS011;14572;43.120;1.178;2023-08-20T00:55:05;11.05;;;7.22;;
26391;SDS011;14572;43.120;1.178;2023-08-20T00:57:34;12.70;;;7.18;;
26391;SDS011;14572;43.120;1.178;2023-08-20T01:00:01;10.00;;;7.03;;
26391;SDS011;14572;43.120;1.178;2023-08-20T01:02:32;9.48;;;7.45;;
26391;SDS011;14572;43.120;1.178;2023-08-20T01:04:59;7.55;;;6.82;;
26391;SDS011;14572;43.120;1.178;2023-08-20T01:07:28;8.82;;;6.60;;
26391;SDS011;14572;43.120;1.178;2023-08-20T01:10:01;10.05;;;7.10;;
26391;SDS011;14572;43.120;1.178;2023-08-20T01:12:33;9.25;;;8.05;;
26391;SDS011;14572;43.120;1.178;2023-08-20T01:15:01;12.32;;;8.07;;
26391;SDS011;14572;43.120;1.178;2023-08-20T01:17:28;11.40;;;7.15;;
26391;SDS011;14572;43.120;1.178;2023-08-20T01:19:56;10.98;;;6.53;;
26391;SDS011;14572;43.120;1.178;2023-08-20T01:22:31;19.50;;;7.55;;
26391;SDS011;14572;43.120;1.178;2023-08-20T01:25:12;8.63;;;6.65;;
26391;SDS011;14572;43.120;1.178;2023-08-20T01:27:51;8.25;;;6.18;;
26391;SDS011;14572;43.120;1.178;2023-08-20T01:30:20;10.10;;;6.70;;
26391;SDS011;14572;43.120;1.178;2023-08-20T01:32:48;7.88;;;6.60;;
26391;SDS011;14572;43.120;1.178;2023-08-20T01:35:16;8.65;;;7.10;;
26391;SDS011;14572;43.120;1.178;2023-08-20T01:37:44;9.40;;;7.03;;
26391;SDS011;14572;43.120;1.178;2023-08-20T01:40:11;15.10;;;7.45;;
26391;SDS011;14572;43.120;1.178;2023-08-20T01:42:39;12.60;;;7.97;;
26391;SDS011;14572;43.120;1.178;2023-08-20T01:45:06;8.82;;;7.70;;
26391;SDS011;14572;43.120;1.178;2023-08-20T01:47:36;10.63;;;7.82;;
26391;SDS011;14572;43.120;1.178;2023-08-20T01:50:03;9.40;;;7.72;;
26391;SDS011;14572;43.120;1.178;2023-08-20T01:52:31;8.18;;;7.20;;
26391;SDS011;14572;43.120;1.178;2023-08-20T01:54:58;10.27;;;7.57;;
26391;SDS011;14572;43.120;1.178;2023-08-20T01:57:25;9.18;;;7.40;;
26391;SDS011;14572;43.120;1.178;2023-08-20T01:59:52;8.25;;;6.90;;
26391;SDS011;14572;43.120;1.178;2023-08-20T02:02:19;12.27;;;7.25;;
26391;SDS011;14572;43.120;1.178;2023-08-20T02:04:48;9.20;;;7.25;;
26391;SDS011;14572;43.120;1.178;2023-08-20T02:07:15;10.55;;;7.07;;
26391;SDS011;14572;43.120;1.178;2023-08-20T02:09:42;11.77;;;7.60;;
26391;SDS011;14572;43.120;1.178;2023-08-20T02:12:09;8.85;;;7.10;;
26391;SDS011;14572;43.120;1.178;2023-08-20T02:14:36;7.82;;;6.25;;
26391;SDS011;14572;43.120;1.178;2023-08-20T02:17:04;8.68;;;7.28;;
26391;SDS011;14572;43.120;1.178;2023-08-20T02:19:31;11.43;;;6.90;;
26391;SDS011;14572;43.120;1.178;2023-08-20T02:21:59;8.63;;;6.95;;
26391;SDS011;14572;43.120;1.178;2023-08-20T02:24:26;10.73;;;6.65;;
26391;SDS011;14572;43.120;1.178;2023-08-20T02:26:53;7.07;;;5.82;;
26391;SDS011;14572;43.120;1.178;2023-08-20T02:29:20;10.05;;;6.90;;
26391;SDS011;14572;43.120;1.178;2023-08-20T02:31:47;9.18;;;6.85;;
26391;SDS011;14572;43.120;1.178;2023-08-20T02:34:15;11.20;;;6.85;;
26391;SDS011;14572;43.120;1.178;2023-08-20T02:36:42;9.65;;;6.80;;
26391;SDS011;14572;43.120;1.178;2023-08-20T02:39:10;8.23;;;7.32;;
26391;SDS011;14572;43.120;1.178;2023-08-20T02:41:37;11.52;;;7.72;;
26391;SDS011;14572;43.120;1.178;2023-08-20T02:44:05;9.73;;;6.93;;
26391;SDS011;14572;43.120;1.178;2023-08-20T02:46:32;8.80;;;7.18;;
26391;SDS011;14572;43.120;1.178;2023-08-20T02:48:59;8.80;;;7.10;;
26391;SDS011;14572;43.120;1.178;2023-08-20T02:51:26;10.05;;;7.22;;
26391;SDS011;14572;43.120;1.178;2023-08-20T02:53:53;10.38;;;7.35;;
26391;SDS011;14572;43.120;1.178;2023-08-20T02:56:22;11.63;;;7.43;;
26391;SDS011;14572;43.120;1.178;2023-08-20T02:58:49;10.05;;;6.97;;
26391;SDS011;14572;43.120;1.178;2023-08-20T03:01:19;10.48;;;7.40;;
26391;SDS011;14572;43.120;1.178;2023-08-20T03:03:47;10.90;;;7.45;;
26391;SDS011;14572;43.120;1.178;2023-08-20T03:06:14;9.25;;;6.93;;
26391;SDS011;14572;43.120;1.178;2023-08-20T03:08:41;9.55;;;7.55;;
26391;SDS011;14572;43.120;1.178;2023-08-20T03:11:08;9.50;;;7.18;;
26391;SDS011;14572;43.120;1.178;2023-08-20T03:13:36;11.63;;;7.38;;
26391;SDS011;14572;43.120;1.178;2023-08-20T03:16:03;10.50;;;7.90;;
26391;SDS011;14572;43.120;1.178;2023-08-20T03:18:31;12.52;;;7.60;;
26391;SDS011;14572;43.120;1.178;2023-08-20T03:20:58;10.13;;;7.10;;
26391;SDS011;14572;43.120;1.178;2023-08-20T03:23:25;10.35;;;6.63;;
26391;SDS011;14572;43.120;1.178;2023-08-20T03:25:56;10.90;;;7.50;;
26391;SDS011;14572;43.120;1.178;2023-08-20T03:28:24;11.20;;;7.47;;
26391;SDS011;14572;43.120;1.178;2023-08-20T03:30:52;12.60;;;7.60;;
26391;SDS011;14572;43.120;1.178;2023-08-20T03:33:19;10.35;;;6.35;;
26391;SDS011;14572;43.120;1.178;2023-08-20T03:35:46;9.75;;;7.18;;
26391;SDS011;14572;43.120;1.178;2023-08-20T03:38:14;7.63;;;6.75;;
26391;SDS011;14572;43.120;1.178;2023-08-20T03:40:41;8.85;;;7.45;;
26391;SDS011;14572;43.120;1.178;2023-08-20T03:43:08;9.40;;;7.90;;
26391;SDS011;14572;43.120;1.178;2023-08-20T03:45:35;9.27;;;7.40;;
26391;SDS011;14572;43.120;1.178;2023-08-20T03:48:04;10.35;;;7.03;;
26391;SDS011;14572;43.120;1.178;2023-08-20T03:50:30;8.60;;;7.75;;
26391;SDS011;14572;43.120;1.178;2023-08-20T03:52:57;10.55;;;6.90;;
26391;SDS011;14572;43.120;1.178;2023-08-20T03:55:24;10.15;;;7.75;;
26391;SDS011;14572;43.120;1.178;2023-08-20T03:57:51;8.73;;;6.72;;
26391;SDS011;14572;43.120;1.178;2023-08-20T04:00:18;8.25;;;7.05;;
26391;SDS011;14572;43.120;1.178;2023-08-20T04:02:45;11.95;;;7.43;;
26391;SDS011;14572;43.120;1.178;2023-08-20T04:05:14;9.77;;;7.28;;
26391;SDS011;14572;43.120;1.178;2023-08-20T04:07:41;11.32;;;8.20;;
26391;SDS011;14572;43.120;1.178;2023-08-20T04:10:09;10.27;;;7.00;;
26391;SDS011;14572;43.120;1.178;2023-08-20T04:12:36;9.57;;;7.00;;
26391;SDS011;14572;43.120;1.178;2023-08-20T04:15:03;12.65;;;7.03;;
26391;SDS011;14572;43.120;1.178;2023-08-20T04:17:31;10.98;;;7.20;;
26391;SDS011;14572;43.120;1.178;2023-08-20T04:19:58;8.73;;;6.65;;
26391;SDS011;14572;43.120;1.178;2023-08-20T04:22:26;9.27;;;7.60;;
26391;SDS011;14572;43.120;1.178;2023-08-20T04:24:56;9.90;;;6.95;;
26391;SDS011;14572;43.120;1.178;2023-08-20T04:27:23;10.07;;;6.95;;
26391;SDS011;14572;43.120;1.178;2023-08-20T04:29:50;12.00;;;7.75;;
26391;SDS011;14572;43.120;1.178;2023-08-20T04:32:17;9.82;;;7.40;;
26391;SDS011;14572;43.120;1.178;2023-08-20T04:34:44;9.82;;;7.25;;
26391;SDS011;14572;43.120;1.178;2023-08-20T04:37:14;9.18;;;7.70;;
26391;SDS011;14572;43.120;1.178;2023-08-20T04:39:43;10.85;;;7.72;;
26391;SDS011;14572;43.120;1.178;2023-08-20T04:42:10;8.93;;;7.47;;
26391;SDS011;14572;43.120;1.178;2023-08-20T04:44:37;10.50;;;7.53;;
26391;SDS011;14572;43.120;1.178;2023-08-20T04:47:04;9.55;;;6.85;;
26391;SDS011;14572;43.120;1.178;2023-08-20T04:49:31;10.15;;;7.35;;
26391;SDS011;14572;43.120;1.178;2023-08-20T04:51:58;9.88;;;7.30;;
26391;SDS011;14572;43.120;1.178;2023-08-20T04:54:25;10.32;;;7.32;;
26391;SDS011;14572;43.120;1.178;2023-08-20T04:56:53;9.50;;;6.88;;
26391;SDS011;14572;43.120;1.178;2023-08-20T04:59:20;12.57;;;7.57;;
26391;SDS011;14572;43.120;1.178;2023-08-20T05:01:47;9.38;;;8.02;;
26391;SDS011;14572;43.120;1.178;2023-08-20T05:04:14;9.82;;;7.72;;
26391;SDS011;14572;43.120;1.178;2023-08-20T05:06:42;8.27;;;7.35;;
26391;SDS011;14572;43.120;1.178;2023-08-20T05:09:09;12.80;;;7.63;;
26391;SDS011;14572;43.120;1.178;2023-08-20T05:11:36;10.18;;;6.85;;
26391;SDS011;14572;43.120;1.178;2023-08-20T05:14:04;8.18;;;7.30;;
26391;SDS011;14572;43.120;1.178;2023-08-20T05:16:31;11.43;;;7.53;;
26391;SDS011;14572;43.120;1.178;2023-08-20T05:18:58;10.80;;;7.20;;
26391;SDS011;14572;43.120;1.178;2023-08-20T05:21:25;16.13;;;7.55;;
26391;SDS011;14572;43.120;1.178;2023-08-20T05:23:52;10.55;;;7.18;;
26391;SDS011;14572;43.120;1.178;2023-08-20T05:26:19;8.38;;;7.20;;
26391;SDS011;14572;43.120;1.178;2023-08-20T05:28:48;9.23;;;7.60;;
26391;SDS011;14572;43.120;1.178;2023-08-20T05:31:16;10.82;;;7.25;;
26391;SDS011;14572;43.120;1.178;2023-08-20T05:33:43;9.68;;;7.35;;
26391;SDS011;14572;43.120;1.178;2023-08-20T05:36:10;9.35;;;6.65;;
26391;SDS011;14572;43.120;1.178;2023-08-20T05:38:37;11.40;;;7.65;;
26391;SDS011;14572;43.120;1.178;2023-08-20T05:41:05;7.93;;;6.55;;
26391;SDS011;14572;43.120;1.178;2023-08-20T05:43:32;8.23;;;6.78;;
26391;SDS011;14572;43.120;1.178;2023-08-20T05:45:59;10.18;;;7.68;;
26391;SDS011;14572;43.120;1.178;2023-08-20T05:48:27;11.38;;;8.23;;
26391;SDS011;14572;43.120;1.178;2023-08-20T05:50:55;8.90;;;7.82;;
26391;SDS011;14572;43.120;1.178;2023-08-20T05:53:22;9.43;;;6.90;;
26391;SDS011;14572;43.120;1.178;2023-08-20T05:55:50;13.35;;;8.55;;
26391;SDS011;14572;43.120;1.178;2023-08-20T05:58:17;8.82;;;7.47;;
26391;SDS011;14572;43.120;1.178;2023-08-20T06:00:44;8.50;;;7.60;;
26391;SDS011;14572;43.120;1.178;2023-08-20T06:03:12;9.60;;;7.45;;
26391;SDS011;14572;43.120;1.178;2023-08-20T06:05:40;7.32;;;6.63;;
26391;SDS011;14572;43.120;1.178;2023-08-20T06:08:07;8.15;;;6.90;;
26391;SDS011;14572;43.120;1.178;2023-08-20T06:10:34;8.88;;;6.85;;
26391;SDS011;14572;43.120;1.178;2023-08-20T06:13:01;8.90;;;7.20;;
26391;SDS011;14572;43.120;1.178;2023-08-20T06:15:28;10.80;;;7.13;;
26391;SDS011;14572;43.120;1.178;2023-08-20T06:17:57;9.75;;;7.05;;
26391;SDS011;14572;43.120;1.178;2023-08-20T06:20:24;10.80;;;8.27;;
26391;SDS011;14572;43.120;1.178;2023-08-20T06:22:52;8.07;;;6.68;;
26391;SDS011;14572;43.120;1.178;2023-08-20T06:25:19;7.90;;;6.40;;
26391;SDS011;14572;43.120;1.178;2023-08-20T06:27:46;8.88;;;6.78;;
26391;SDS011;14572;43.120;1.178;2023-08-20T06:30:13;7.20;;;6.30;;
26391;SDS011;14572;43.120;1.178;2023-08-20T06:32:41;7.70;;;6.80;;
26391;SDS011;14572;43.120;1.178;2023-08-20T06:35:08;8.55;;;6.82;;
26391;SDS011;14572;43.120;1.178;2023-08-20T06:37:36;8.93;;;6.85;;
26391;SDS011;14572;43.120;1.178;2023-08-20T06:40:07;7.28;;;6.28;;
26391;SDS011;14572;43.120;1.178;2023-08-20T06:42:35;8.82;;;6.40;;
26391;SDS011;14572;43.120;1.178;2023-08-20T06:45:02;10.00;;;6.60;;
26391;SDS011;14572;43.120;1.178;2023-08-20T06:47:30;9.13;;;7.18;;
26391;SDS011;14572;43.120;1.178;2023-08-20T06:49:57;8.23;;;7.43;;
26391;SDS011;14572;43.120;1.178;2023-08-20T06:52:24;11.25;;;7.38;;
26391;SDS011;14572;43.120;1.178;2023-08-20T06:54:51;9.10;;;6.90;;
26391;SDS011;14572;43.120;1.178;2023-08-20T06:57:19;9.00;;;7.25;;
26391;SDS011;14572;43.120;1.178;2023-08-20T06:59:46;8.82;;;7.28;;
26391;SDS011;14572;43.120;1.178;2023-08-20T07:02:13;12.15;;;7.20;;
26391;SDS011;14572;43.120;1.178;2023-08-20T07:04:40;9.95;;;7.18;;
26391;SDS011;14572;43.120;1.178;2023-08-20T07:07:07;7.60;;;6.78;;
26391;SDS011;14572;43.120;1.178;2023-08-20T07:09:34;10.85;;;6.97;;
26391;SDS011;14572;43.120;1.178;2023-08-20T07:12:03;10.48;;;7.20;;
26391;SDS011;14572;43.120;1.178;2023-08-20T07:14:32;9.35;;;7.75;;
26391;SDS011;14572;43.120;1.178;2023-08-20T07:16:59;8.02;;;6.70;;
26391;SDS011;14572;43.120;1.178;2023-08-20T07:19:28;7.30;;;6.50;;
26391;SDS011;14572;43.120;1.178;2023-08-20T07:21:55;9.00;;;7.45;;
26391;SDS011;14572;43.120;1.178;2023-08-20T07:24:22;8.32;;;7.10;;
26391;SDS011;14572;43.120;1.178;2023-08-20T17:24:05;7.25;;;4.20;;
26391;SDS011;14572;43.120;1.178;2023-08-20T17:26:32;5.60;;;4.38;;
26391;SDS011;14572;43.120;1.178;2023-08-20T17:28:59;6.68;;;4.38;;
26391;SDS011;14572;43.120;1.178;2023-08-20T17:31:27;11.48;;;4.45;;
26391;SDS011;14572;43.120;1.178;2023-08-20T17:33:57;9.55;;;4.18;;
26391;SDS011;14572;43.120;1.178;2023-08-20T17:36:24;7.72;;;4.50;;
26391;SDS011;14572;43.120;1.178;2023-08-20T17:38:52;8.35;;;4.30;;
26391;SDS011;14572;43.120;1.178;2023-08-20T17:41:21;9.23;;;4.10;;
26391;SDS011;14572;43.120;1.178;2023-08-20T17:43:48;5.25;;;3.92;;
26391;SDS011;14572;43.120;1.178;2023-08-20T17:46:16;7.28;;;4.10;;
26391;SDS011;14572;43.120;1.178;2023-08-20T17:48:43;7.28;;;4.30;;
26391;SDS011;14572;43.120;1.178;2023-08-20T17:51:10;4.68;;;3.70;;
26391;SDS011;14572;43.120;1.178;2023-08-20T17:53:38;6.00;;;4.00;;
26391;SDS011;14572;43.120;1.178;2023-08-20T17:56:06;7.80;;;4.03;;
26391;SDS011;14572;43.120;1.178;2023-08-20T17:58:34;9.63;;;4.25;;
26391;SDS011;14572;43.120;1.178;2023-08-20T18:01:02;6.97;;;4.03;;
26391;SDS011;14572;43.120;1.178;2023-08-20T18:03:29;6.03;;;4.30;;
26391;SDS011;14572;43.120;1.178;2023-08-20T18:05:56;6.13;;;4.50;;
26391;SDS011;14572;43.120;1.178;2023-08-20T18:08:25;6.93;;;4.57;;
26391;SDS011;14572;43.120;1.178;2023-08-20T18:10:52;7.28;;;4.32;;
26391;SDS011;14572;43.120;1.178;2023-08-20T18:13:20;10.10;;;4.63;;
26391;SDS011;14572;43.120;1.178;2023-08-20T18:15:48;7.25;;;4.30;;
26391;SDS011;14572;43.120;1.178;2023-08-20T18:18:15;4.93;;;3.60;;
26391;SDS011;14572;43.120;1.178;2023-08-20T18:20:42;6.95;;;4.22;;
26391;SDS011;14572;43.120;1.178;2023-08-20T18:23:09;9.48;;;4.47;;
26391;SDS011;14572;43.120;1.178;2023-08-20T18:25:37;5.72;;;3.92;;
26391;SDS011;14572;43.120;1.178;2023-08-20T18:28:04;6.72;;;3.90;;
26391;SDS011;14572;43.120;1.178;2023-08-20T18:30:32;6.72;;;4.85;;
26391;SDS011;14572;43.120;1.178;2023-08-20T18:33:00;6.93;;;4.15;;
26391;SDS011;14572;43.120;1.178;2023-08-20T18:35:28;5.15;;;4.00;;
26391;SDS011;14572;43.120;1.178;2023-08-20T18:37:56;8.32;;;4.10;;
26391;SDS011;14572;43.120;1.178;2023-08-20T18:40:23;8.98;;;4.15;;
26391;SDS011;14572;43.120;1.178;2023-08-20T18:42:50;6.15;;;4.25;;
26391;SDS011;14572;43.120;1.178;2023-08-20T18:45:17;15.70;;;4.57;;
26391;SDS011;14572;43.120;1.178;2023-08-20T18:47:44;7.97;;;3.97;;
26391;SDS011;14572;43.120;1.178;2023-08-20T18:50:13;6.35;;;3.78;;
26391;SDS011;14572;43.120;1.178;2023-08-20T18:52:40;6.32;;;4.00;;
26391;SDS011;14572;43.120;1.178;2023-08-20T18:55:07;7.25;;;4.28;;
26391;SDS011;14572;43.120;1.178;2023-08-20T18:57:35;13.10;;;4.30;;
26391;SDS011;14572;43.120;1.178;2023-08-20T19:00:02;6.13;;;4.35;;
26391;SDS011;14572;43.120;1.178;2023-08-20T19:02:31;9.02;;;4.97;;
26391;SDS011;14572;43.120;1.178;2023-08-20T19:04:58;6.30;;;4.50;;
26391;SDS011;14572;43.120;1.178;2023-08-20T19:07:26;8.68;;;4.28;;
26391;SDS011;14572;43.120;1.178;2023-08-20T19:09:53;7.63;;;4.55;;
26391;SDS011;14572;43.120;1.178;2023-08-20T19:12:21;8.38;;;4.43;;
26391;SDS011;14572;43.120;1.178;2023-08-20T19:14:48;10.13;;;5.30;;
26391;SDS011;14572;43.120;1.178;2023-08-20T19:17:15;7.47;;;5.60;;
26391;SDS011;14572;43.120;1.178;2023-08-20T19:19:42;8.63;;;5.45;;
26391;SDS011;14572;43.120;1.178;2023-08-20T19:22:09;9.13;;;5.75;;
26391;SDS011;14572;43.120;1.178;2023-08-20T19:24:40;6.70;;;5.43;;
26391;SDS011;14572;43.120;1.178;2023-08-20T19:27:07;8.57;;;5.82;;
26391;SDS011;14572;43.120;1.178;2023-08-20T19:29:34;7.60;;;5.80;;
26391;SDS011;14572;43.120;1.178;2023-08-20T19:32:02;10.95;;;6.65;;
26391;SDS011;14572;43.120;1.178;2023-08-20T19:34:30;7.22;;;5.47;;
26391;SDS011;14572;43.120;1.178;2023-08-20T19:36:58;16.05;;;5.40;;
26391;SDS011;14572;43.120;1.178;2023-08-20T19:39:27;8.43;;;6.07;;
26391;SDS011;14572;43.120;1.178;2023-08-20T19:41:56;7.53;;;5.60;;
26391;SDS011;14572;43.120;1.178;2023-08-20T19:44:23;8.95;;;5.90;;
26391;SDS011;14572;43.120;1.178;2023-08-20T19:46:50;7.10;;;5.38;;
26391;SDS011;14572;43.120;1.178;2023-08-20T19:49:17;10.48;;;5.85;;
26391;SDS011;14572;43.120;1.178;2023-08-20T19:51:44;8.18;;;5.80;;
26391;SDS011;14572;43.120;1.178;2023-08-20T19:54:11;7.03;;;5.30;;
26391;SDS011;14572;43.120;1.178;2023-08-20T19:56:39;7.57;;;5.15;;
26391;SDS011;14572;43.120;1.178;2023-08-20T19:59:07;6.95;;;4.60;;
26391;SDS011;14572;43.120;1.178;2023-08-20T20:01:44;10.10;;;4.55;;
26391;SDS011;14572;43.120;1.178;2023-08-20T20:04:12;9.35;;;4.95;;
26391;SDS011;14572;43.120;1.178;2023-08-20T20:06:39;9.48;;;5.57;;
26391;SDS011;14572;43.120;1.178;2023-08-20T20:09:06;7.32;;;4.50;;
26391;SDS011;14572;43.120;1.178;2023-08-20T20:11:34;8.65;;;4.93;;
26391;SDS011;14572;43.120;1.178;2023-08-20T20:14:01;7.22;;;5.00;;
26391;SDS011;14572;43.120;1.178;2023-08-20T20:16:30;8.75;;;5.57;;
26391;SDS011;14572;43.120;1.178;2023-08-20T20:18:57;7.78;;;5.40;;
26391;SDS011;14572;43.120;1.178;2023-08-20T20:21:25;8.13;;;5.85;;
26391;SDS011;14572;43.120;1.178;2023-08-20T20:23:52;5.97;;;5.38;;
26391;SDS011;14572;43.120;1.178;2023-08-20T20:26:19;9.13;;;5.63;;
26391;SDS011;14572;43.120;1.178;2023-08-20T20:28:46;11.18;;;5.72;;
26391;SDS011;14572;43.120;1.178;2023-08-20T20:31:13;8.40;;;6.20;;
26391;SDS011;14572;43.120;1.178;2023-08-20T20:33:42;8.77;;;5.60;;
26391;SDS011;14572;43.120;1.178;2023-08-20T20:36:09;12.43;;;6.30;;
26391;SDS011;14572;43.120;1.178;2023-08-20T20:38:36;9.20;;;5.63;;
26391;SDS011;14572;43.120;1.178;2023-08-20T20:41:06;9.80;;;5.68;;
26391;SDS011;14572;43.120;1.178;2023-08-20T20:43:33;7.88;;;5.47;;
26391;SDS011;14572;43.120;1.178;2023-08-20T20:46:00;9.35;;;5.75;;
26391;SDS011;14572;43.120;1.178;2023-08-20T20:48:28;9.75;;;6.07;;
26391;SDS011;14572;43.120;1.178;2023-08-20T20:50:56;9.50;;;5.82;;
26391;SDS011;14572;43.120;1.178;2023-08-20T20:53:23;10.25;;;6.20;;
26391;SDS011;14572;43.120;1.178;2023-08-20T20:55:50;11.10;;;5.97;;
26391;SDS011;14572;43.120;1.178;2023-08-20T20:58:17;8.75;;;5.65;;
26391;SDS011;14572;43.120;1.178;2023-08-20T21:00:44;7.15;;;6.10;;
26391;SDS011;14572;43.120;1.178;2023-08-20T21:03:12;7.03;;;5.60;;
26391;SDS011;14572;43.120;1.178;2023-08-20T21:05:42;6.88;;;6.07;;
26391;SDS011;14572;43.120;1.178;2023-08-20T21:08:11;8.00;;;5.70;;
26391;SDS011;14572;43.120;1.178;2023-08-20T21:10:38;8.10;;;6.07;;
26391;SDS011;14572;43.120;1.178;2023-08-20T21:13:05;7.28;;;5.40;;
26391;SDS011;14572;43.120;1.178;2023-08-20T21:15:35;9.02;;;6.03;;
26391;SDS011;14572;43.120;1.178;2023-08-20T21:18:03;8.15;;;6.07;;
26391;SDS011;14572;43.120;1.178;2023-08-20T21:20:30;10.80;;;5.85;;
26391;SDS011;14572;43.120;1.178;2023-08-20T21:22:58;9.90;;;5.85;;
26391;SDS011;14572;43.120;1.178;2023-08-20T21:25:26;12.50;;;5.72;;
26391;SDS011;14572;43.120;1.178;2023-08-20T21:27:53;6.13;;;5.53;;
26391;SDS011;14572;43.120;1.178;2023-08-20T21:30:20;8.10;;;5.95;;
26391;SDS011;14572;43.120;1.178;2023-08-20T21:32:48;8.45;;;5.93;;
26391;SDS011;14572;43.120;1.178;2023-08-20T21:35:15;6.45;;;5.60;;
26391;SDS011;14572;43.120;1.178;2023-08-20T21:37:42;8.43;;;5.78;;
26391;SDS011;14572;43.120;1.178;2023-08-20T21:40:10;9.48;;;5.75;;
26391;SDS011;14572;43.120;1.178;2023-08-20T21:42:39;7.22;;;5.30;;
26391;SDS011;14572;43.120;1.178;2023-08-20T21:45:07;7.45;;;6.00;;
26391;SDS011;14572;43.120;1.178;2023-08-20T21:47:37;11.48;;;5.95;;
26391;SDS011;14572;43.120;1.178;2023-08-20T21:50:06;7.13;;;5.53;;
26391;SDS011;14572;43.120;1.178;2023-08-20T21:52:33;7.30;;;5.60;;
26391;SDS011;14572;43.120;1.178;2023-08-20T21:55:00;7.00;;;5.47;;
26391;SDS011;14572;43.120;1.178;2023-08-20T21:57:28;8.93;;;6.10;;
26391;SDS011;14572;43.120;1.178;2023-08-20T21:59:56;8.15;;;5.72;;
26391;SDS011;14572;43.120;1.178;2023-08-20T22:02:23;8.40;;;6.00;;
26391;SDS011;14572;43.120;1.178;2023-08-20T22:05:03;9.10;;;6.40;;
26391;SDS011;14572;43.120;1.178;2023-08-20T22:07:37;8.10;;;6.07;;
26391;SDS011;14572;43.120;1.178;2023-08-20T22:10:04;8.48;;;6.20;;
26391;SDS011;14572;43.120;1.178;2023-08-20T22:12:33;8.40;;;5.70;;
26391;SDS011;14572;43.120;1.178;2023-08-20T22:15:01;8.07;;;6.13;;
26391;SDS011;14572;43.120;1.178;2023-08-20T22:17:29;9.18;;;6.88;;
26391;SDS011;14572;43.120;1.178;2023-08-20T22:19:56;11.05;;;5.68;;
26391;SDS011;14572;43.120;1.178;2023-08-20T22:22:23;8.27;;;5.95;;
26391;SDS011;14572;43.120;1.178;2023-08-20T22:24:50;10.25;;;6.30;;
26391;SDS011;14572;43.120;1.178;2023-08-20T22:27:17;9.60;;;6.60;;
26391;SDS011;14572;43.120;1.178;2023-08-20T22:29:44;8.43;;;5.90;;
26391;SDS011;14572;43.120;1.178;2023-08-20T22:32:13;9.13;;;6.68;;
26391;SDS011;14572;43.120;1.178;2023-08-20T22:34:40;10.55;;;6.35;;
26391;SDS011;14572;43.120;1.178;2023-08-20T22:37:07;7.43;;;5.85;;
26391;SDS011;14572;43.120;1.178;2023-08-20T22:39:34;9.02;;;6.32;;
26391;SDS011;14572;43.120;1.178;2023-08-20T22:42:01;7.88;;;6.07;;
26391;SDS011;14572;43.120;1.178;2023-08-20T22:44:29;9.82;;;6.20;;
26391;SDS011;14572;43.120;1.178;2023-08-20T22:46:56;9.45;;;5.68;;
26391;SDS011;14572;43.120;1.178;2023-08-20T22:49:24;12.25;;;6.00;;
26391;SDS011;14572;43.120;1.178;2023-08-20T22:51:51;10.02;;;6.85;;
26391;SDS011;14572;43.120;1.178;2023-08-20T22:54:18;10.40;;;6.70;;
26391;SDS011;14572;43.120;1.178;2023-08-20T22:56:45;12.40;;;6.78;;
26391;SDS011;14572;43.120;1.178;2023-08-20T22:59:12;9.95;;;6.25;;
26391;SDS011;14572;43.120;1.178;2023-08-20T23:01:40;8.30;;;6.57;;
26391;SDS011;14572;43.120;1.178;2023-08-20T23:04:07;9.05;;;6.55;;
26391;SDS011;14572;43.120;1.178;2023-08-20T23:06:36;8.23;;;6.07;;
26391;SDS011;14572;43.120;1.178;2023-08-20T23:09:03;9.85;;;6.45;;
26391;SDS011;14572;43.120;1.178;2023-08-20T23:11:30;9.98;;;6.47;;
26391;SDS011;14572;43.120;1.178;2023-08-20T23:13:58;13.82;;;7.30;;
26391;SDS011;14572;43.120;1.178;2023-08-20T23:16:25;9.00;;;6.65;;
26391;SDS011;14572;43.120;1.178;2023-08-20T23:18:52;9.35;;;6.45;;
26391;SDS011;14572;43.120;1.178;2023-08-20T23:21:19;7.15;;;6.45;;
26391;SDS011;14572;43.120;1.178;2023-08-20T23:23:48;11.15;;;6.55;;
26391;SDS011;14572;43.120;1.178;2023-08-20T23:26:15;11.98;;;6.60;;
26391;SDS011;14572;43.120;1.178;2023-08-20T23:28:42;11.27;;;6.50;;
26391;SDS011;14572;43.120;1.178;2023-08-20T23:31:09;9.95;;;6.47;;
26391;SDS011;14572;43.120;1.178;2023-08-20T23:33:37;9.75;;;6.72;;
26391;SDS011;14572;43.120;1.178;2023-08-20T23:36:04;8.35;;;6.70;;
26391;SDS011;14572;43.120;1.178;2023-08-20T23:38:31;10.07;;;6.68;;
26391;SDS011;14572;43.120;1.178;2023-08-20T23:41:06;9.40;;;6.45;;
26391;SDS011;14572;43.120;1.178;2023-08-20T23:43:33;7.57;;;6.30;;
26391;SDS011;14572;43.120;1.178;2023-08-20T23:46:00;8.85;;;6.38;;
26391;SDS011;14572;43.120;1.178;2023-08-20T23:48:27;7.25;;;6.32;;
26391;SDS011;14572;43.120;1.178;2023-08-20T23:50:54;13.25;;;6.57;;
26391;SDS011;14572;43.120;1.178;2023-08-20T23:53:21;9.15;;;6.38;;
26391;SDS011;14572;43.120;1.178;2023-08-20T23:55:48;11.18;;;7.53;;
26391;SDS011;14572;43.120;1.178;2023-08-20T23:58:17;10.95;;;6.97;;
